Time;durP1;ratioP1;P1;durP2;ratioP2;P2;SDS_P1;SDS_P2;PMS_P1;PMS_P2;Temp;Humidity;BMP_temperature;BMP_pressure;BME280_temperature;BME280_humidity;BME280_pressure;Samples;Min_cycle;Max_cycle;Signal;HPM_P1;HPM_P2
2024/03/14 00:02:00;;;;;;;4.15;2.30;;;21.10;60.60;;;;;;4992747;28;85793;-63
2024/03/14 00:04:26;;;;;;;3.70;2.22;;;21.10;60.60;;;;;;4990882;28;85987;-64
2024/03/14 00:06:52;;;;;;;2.45;1.85;;;21.10;60.70;;;;;;4987526;28;86442;-65
2024/03/14 00:09:18;;;;;;;6.80;2.78;;;21.10;60.70;;;;;;4990359;28;85892;-66
2024/03/14 00:11:44;;;;;;;3.35;1.92;;;21.10;60.70;;;;;;4991194;28;86013;-65
2024/03/14 00:14:10;;;;;;;3.63;1.88;;;21.10;60.60;;;;;;4990463;28;86124;-70
2024/03/14 00:16:36;;;;;;;3.67;1.80;;;21.10;60.60;;;;;;4972681;28;87407;-71
2024/03/14 00:19:02;;;;;;;4.90;2.58;;;21.10;60.60;;;;;;4988279;28;87363;-68
2024/03/14 00:21:28;;;;;;;4.32;2.28;;;21.10;60.70;;;;;;4989803;28;85659;-71
2024/03/14 00:23:54;;;;;;;5.82;1.83;;;21.10;60.60;;;;;;4990074;28;86439;-72
2024/03/14 00:26:21;;;;;;;3.30;1.70;;;21.10;60.60;;;;;;4970788;28;86319;-68
2024/03/14 00:28:46;;;;;;;3.33;2.00;;;21.10;60.70;;;;;;4962801;28;86868;-69
2024/03/14 00:31:13;;;;;;;3.80;1.52;;;21.10;60.60;;;;;;4972184;28;86218;-69
2024/03/14 00:33:40;;;;;;;2.97;1.75;;;21.10;60.70;;;;;;4952533;28;86082;-74
2024/03/14 00:36:11;;;;;;;2.85;1.80;;;21.00;60.60;;;;;;4972563;28;87049;-68
2024/03/14 00:38:40;;;;;;;4.10;2.08;;;21.00;60.60;;;;;;4984383;28;86405;-66
2024/03/14 00:41:05;;;;;;;3.08;1.60;;;21.00;60.70;;;;;;4975934;28;86136;-67
2024/03/14 00:43:35;;;;;;;6.85;2.20;;;21.00;60.70;;;;;;4970773;28;86133;-67
2024/03/14 00:46:00;;;;;;;;;;;21.00;60.60;;;;;;4974010;28;87428;-67
2024/03/14 00:48:26;;;;;;;4.43;2.20;;;21.00;60.70;;;;;;4986424;28;86958;-66
2024/03/14 00:50:52;;;;;;;3.40;2.13;;;21.00;60.40;;;;;;4991396;28;86050;-67
2024/03/14 00:53:17;;;;;;;3.90;1.90;;;21.00;60.50;;;;;;4990284;28;85667;-68
2024/03/14 00:55:44;;;;;;;2.53;1.70;;;21.00;60.40;;;;;;4991044;28;87179;-66
2024/03/14 00:58:10;;;;;;;4.13;1.50;;;21.00;60.40;;;;;;4969178;28;88719;-68
2024/03/14 01:00:37;;;;;;;3.53;2.05;;;21.00;60.40;;;;;;4987847;28;85685;-67
2024/03/14 01:03:03;;;;;;;4.72;2.05;;;20.90;60.50;;;;;;4983619;28;85928;-67
2024/03/14 01:05:29;;;;;;;3.45;1.85;;;21.00;60.50;;;;;;4982091;28;87539;-67
2024/03/14 01:07:54;;;;;;;4.13;2.00;;;21.00;60.40;;;;;;4973306;28;86381;-68
2024/03/14 01:10:20;;;;;;;2.90;1.67;;;21.00;60.40;;;;;;4975432;28;86178;-67
2024/03/14 01:12:46;;;;;;;3.15;1.60;;;20.90;60.20;;;;;;4958053;28;86361;-67
2024/03/14 01:15:13;;;;;;;3.10;1.80;;;20.90;60.40;;;;;;4973545;28;87301;-67
2024/03/14 01:17:39;;;;;;;3.35;1.73;;;20.90;60.20;;;;;;4975491;28;86415;-68
2024/03/14 01:20:09;;;;;;;2.50;1.67;;;20.90;60.40;;;;;;4976519;28;85976;-68
2024/03/14 01:22:36;;;;;;;2.38;1.50;;;20.90;60.30;;;;;;4976154;28;86380;-66
2024/03/14 01:25:02;;;;;;;4.40;2.00;;;20.90;60.30;;;;;;4975822;28;86856;-68
2024/03/14 01:27:28;;;;;;;2.53;1.60;;;20.90;60.20;;;;;;4975130;28;86391;-67
2024/03/14 01:29:54;;;;;;;3.50;1.60;;;20.90;60.40;;;;;;4974828;28;86350;-69
2024/03/14 01:32:19;;;;;;;2.53;1.50;;;20.90;60.40;;;;;;4974648;28;86163;-67
2024/03/14 01:34:47;;;;;;;2.95;1.65;;;20.90;60.20;;;;;;4975335;28;87270;-67
2024/03/14 01:37:13;;;;;;;3.95;1.60;;;20.80;60.10;;;;;;4974568;28;86090;-67
2024/03/14 01:39:39;;;;;;;3.25;1.77;;;20.80;60.00;;;;;;4974403;28;85935;-68
2024/03/14 01:42:05;;;;;;;1.65;1.13;;;20.80;60.10;;;;;;4975426;28;86210;-67
2024/03/14 01:44:59;;;;;;;1.67;1.15;;;20.80;60.00;;;;;;4977528;28;86827;-67
2024/03/14 01:47:26;;;;;;;2.83;1.60;;;20.80;60.00;;;;;;4992599;28;88296;-67
2024/03/14 01:49:52;;;;;;;4.45;1.88;;;20.80;59.80;;;;;;4992596;28;86871;-67
2024/03/14 01:52:18;;;;;;;3.15;1.65;;;20.80;59.90;;;;;;4957221;28;87344;-67
2024/03/14 01:54:46;;;;;;;4.20;1.63;;;20.80;59.80;;;;;;4972929;28;87740;-67
2024/03/14 01:57:12;;;;;;;3.00;1.67;;;20.80;59.90;;;;;;4987974;28;89827;-67
2024/03/14 01:59:39;;;;;;;3.97;2.03;;;20.80;59.90;;;;;;4988647;28;90077;-67
2024/03/14 02:02:06;;;;;;;3.05;1.40;;;20.80;59.90;;;;;;4991897;28;87321;-67
2024/03/14 02:04:52;;;;;;;3.08;1.60;;;20.80;59.90;;;;;;4986134;28;87341;-67
2024/03/14 02:07:23;;;;;;;3.42;2.03;;;20.70;59.80;;;;;;4950224;28;88531;-67
2024/03/14 02:09:48;;;;;;;2.90;1.50;;;20.70;59.70;;;;;;4990812;28;88797;-67
2024/03/14 02:12:15;;;;;;;4.72;1.77;;;20.70;59.70;;;;;;4991383;28;87530;-66
2024/03/14 02:14:41;;;;;;;3.58;1.80;;;20.70;59.90;;;;;;4989179;28;89764;-67
2024/03/14 02:17:07;;;;;;;2.58;1.45;;;20.70;60.00;;;;;;4993696;28;88154;-68
2024/03/14 02:19:32;;;;;;;2.38;1.48;;;20.70;59.60;;;;;;4991840;28;87860;-67
2024/03/14 02:22:02;;;;;;;1.80;1.02;;;20.70;59.70;;;;;;4975115;28;88366;-68
2024/03/14 02:24:28;;;;;;;2.42;1.50;;;20.70;59.50;;;;;;4971707;28;87624;-67
2024/03/14 02:26:57;;;;;;;3.45;1.80;;;20.70;59.40;;;;;;4971537;28;89664;-67
2024/03/14 02:29:23;;;;;;;2.75;1.58;;;20.70;59.50;;;;;;4973392;28;87871;-68
2024/03/14 02:31:52;;;;;;;3.35;1.70;;;20.70;59.70;;;;;;4956544;28;87426;-66
2024/03/14 02:34:19;;;;;;;3.53;1.30;;;20.70;59.60;;;;;;4971207;28;88408;-67
2024/03/14 02:36:45;;;;;;;2.38;1.52;;;20.70;59.50;;;;;;4972812;28;87549;-67
2024/03/14 02:39:14;;;;;;;3.28;1.90;;;20.70;59.60;;;;;;4973117;28;87720;-67
2024/03/14 02:41:40;;;;;;;3.63;1.70;;;20.70;59.60;;;;;;4985372;28;87279;-68
2024/03/14 02:44:17;;;;;;;2.58;1.50;;;20.70;59.60;;;;;;4973553;28;88485;-66
2024/03/14 02:46:45;;;;;;;3.45;1.70;;;20.60;59.40;;;;;;4989927;28;93680;-67
2024/03/14 02:49:11;;;;;;;2.15;1.20;;;20.60;59.30;;;;;;4989960;28;88790;-66
2024/03/14 02:51:37;;;;;;;2.78;1.73;;;20.60;59.30;;;;;;4991368;28;86980;-66
2024/03/14 02:54:06;;;;;;;2.08;1.60;;;20.60;59.30;;;;;;4992561;28;87276;-67
2024/03/14 02:56:33;;;;;;;4.70;1.65;;;20.60;59.30;;;;;;4986954;28;87343;-66
2024/03/14 02:58:59;;;;;;;4.07;1.77;;;20.70;59.30;;;;;;4991194;28;87832;-67
2024/03/14 03:01:25;;;;;;;2.58;1.33;;;20.60;59.30;;;;;;4991054;28;87097;-67
2024/03/14 03:03:53;;;;;;;1.67;1.20;;;20.60;59.40;;;;;;4973663;28;86293;-67
2024/03/14 03:06:20;;;;;;;2.80;1.38;;;20.60;59.30;;;;;;4992598;28;88051;-67
2024/03/14 03:08:46;;;;;;;1.55;1.20;;;20.60;59.30;;;;;;4988497;28;88218;-68
2024/03/14 03:11:12;;;;;;;2.95;1.55;;;20.60;59.20;;;;;;4992845;28;88351;-68
2024/03/14 03:13:40;;;;;;;2.60;1.33;;;20.60;59.20;;;;;;4988624;28;87274;-67
2024/03/14 03:16:06;;;;;;;4.70;1.17;;;20.60;59.30;;;;;;4988526;28;87393;-67
2024/03/14 03:18:34;;;;;;;1.77;1.30;;;20.50;59.30;;;;;;4972263;28;87633;-67
2024/03/14 03:21:00;;;;;;;1.95;1.17;;;20.50;59.40;;;;;;4972628;28;87361;-66
2024/03/14 03:23:26;;;;;;;2.25;1.45;;;20.60;59.20;;;;;;4971871;28;86936;-67
2024/03/14 03:25:53;;;;;;;2.75;1.50;;;20.60;59.30;;;;;;4970709;28;88349;-67
2024/03/14 03:28:19;;;;;;;2.53;1.13;;;20.50;59.30;;;;;;4971631;28;87807;-67
2024/03/14 03:31:08;;;;;;;3.90;1.50;;;20.50;59.30;;;;;;4971908;28;87644;-67
2024/03/14 03:33:39;;;;;;;1.92;1.17;;;20.50;59.30;;;;;;4972806;28;86987;-67
2024/03/14 03:36:06;;;;;;;2.75;1.48;;;20.50;59.20;;;;;;4970381;28;89494;-67
2024/03/14 03:38:38;;;;;;;2.70;1.30;;;20.50;59.20;;;;;;4984209;28;89673;-67
2024/03/14 03:41:09;;;;;;;2.45;1.48;;;20.50;59.20;;;;;;4974277;28;87261;-67
2024/03/14 03:43:35;;;;;;;2.20;1.45;;;20.50;59.00;;;;;;4990891;28;86942;-67
2024/03/14 03:46:01;;;;;;;3.00;1.63;;;20.50;59.00;;;;;;4990182;28;89023;-67
2024/03/14 03:48:27;;;;;;;2.75;1.60;;;20.50;59.10;;;;;;4972888;28;88685;-67
2024/03/14 03:50:52;;;;;;;1.80;1.15;;;20.50;59.10;;;;;;4991911;28;87435;-67
2024/03/14 03:53:21;;;;;;;1.70;1.20;;;20.50;59.20;;;;;;4988216;28;86268;-67
2024/03/14 03:55:49;;;;;;;2.30;1.10;;;20.50;59.10;;;;;;4992573;28;88225;-66
2024/03/14 03:58:14;;;;;;;3.67;1.60;;;20.50;59.10;;;;;;4971881;28;88686;-66
2024/03/14 04:00:46;;;;;;;1.70;1.30;;;20.40;59.10;;;;;;4987094;28;87931;-66
2024/03/14 04:03:15;;;;;;;2.78;1.23;;;20.40;59.60;;;;;;4979970;28;88086;-67
2024/03/14 04:05:42;;;;;;;3.50;1.10;;;20.40;59.10;;;;;;4967794;28;88568;-67
2024/03/14 04:08:08;;;;;;;2.53;1.20;;;20.40;59.10;;;;;;4969752;28;88200;-66
2024/03/14 04:10:34;;;;;;;3.83;1.35;;;20.40;59.00;;;;;;4968815;28;87362;-67
2024/03/14 04:13:01;;;;;;;1.33;1.08;;;20.40;59.10;;;;;;4970835;28;87074;-66
2024/03/14 04:15:30;;;;;;;3.42;1.52;;;20.40;59.00;;;;;;4966913;28;88474;-67
2024/03/14 04:17:57;;;;;;;1.67;1.10;;;20.40;59.00;;;;;;4970378;28;87871;-66
2024/03/14 04:20:27;;;;;;;1.92;1.13;;;20.40;59.00;;;;;;4952823;28;87523;-67
2024/03/14 04:22:55;;;;;;;1.42;1.20;;;20.40;59.10;;;;;;4970606;28;87501;-67
2024/03/14 04:25:22;;;;;;;2.20;1.10;;;20.40;59.00;;;;;;4966361;28;90012;-66
2024/03/14 04:27:52;;;;;;;2.30;1.25;;;20.40;59.10;;;;;;4953622;28;87923;-67
2024/03/14 04:30:23;;;;;;;2.10;1.27;;;20.40;59.10;;;;;;4953883;28;87351;-67
2024/03/14 04:32:49;;;;;;;2.28;1.30;;;20.40;59.00;;;;;;4972004;28;87238;-66
2024/03/14 04:35:16;;;;;;;3.47;1.10;;;20.40;58.90;;;;;;4990379;28;88140;-67
2024/03/14 04:37:47;;;;;;;1.65;1.00;;;20.40;59.00;;;;;;4956135;28;89186;-67
2024/03/14 04:40:14;;;;;;;4.53;1.50;;;20.30;58.90;;;;;;4959282;28;87734;-67
2024/03/14 04:42:42;;;;;;;2.05;1.33;;;20.30;59.10;;;;;;4964642;28;87093;-67
2024/03/14 04:45:13;;;;;;;1.63;1.10;;;20.30;59.00;;;;;;4969885;28;88077;-67
2024/03/14 04:47:40;;;;;;;1.33;1.00;;;20.40;59.10;;;;;;4952540;28;88861;-66
2024/03/14 04:50:10;;;;;;;2.40;1.50;;;20.30;58.90;;;;;;4972112;28;88962;-67
2024/03/14 04:52:42;;;;;;;1.73;1.00;;;20.40;58.90;;;;;;4988399;28;87682;-69
2024/03/14 04:55:10;;;;;;;2.03;1.33;;;20.30;58.80;;;;;;4979665;28;88883;-67
2024/03/14 04:57:41;;;;;;;1.80;1.30;;;20.30;58.70;;;;;;4952267;28;87505;-67
2024/03/14 05:02:49;;;;;;;2.00;1.10;;;20.30;58.80;;;;;;4961727;28;87247;-67
2024/03/14 05:05:20;;;;;;;2.05;1.45;;;20.30;58.80;;;;;;4971253;28;88003;-66
2024/03/14 05:07:50;;;;;;;1.20;0.90;;;20.30;58.80;;;;;;4969036;28;88089;-67
2024/03/14 05:10:19;;;;;;;1.73;1.10;;;20.20;58.60;;;;;;4951596;28;87354;-67
2024/03/14 05:12:47;;;;;;;2.35;1.38;;;20.20;58.60;;;;;;4946167;28;87229;-68
2024/03/14 05:15:14;;;;;;;1.85;0.98;;;20.20;59.20;;;;;;4945874;28;90005;-67
2024/03/14 05:17:44;;;;;;;1.98;1.13;;;20.20;58.80;;;;;;4949615;28;89350;-67
2024/03/14 05:20:13;;;;;;;1.65;1.20;;;20.20;58.70;;;;;;4953483;28;87044;-66
2024/03/14 05:22:41;;;;;;;1.77;1.25;;;20.20;58.70;;;;;;4968567;28;88367;-67
2024/03/14 05:25:11;;;;;;;1.95;1.02;;;20.20;58.70;;;;;;4947905;28;89201;-67
2024/03/14 05:27:37;;;;;;;1.80;1.33;;;20.20;58.70;;;;;;4966590;28;87784;-68
2024/03/14 05:30:03;;;;;;;1.77;1.15;;;20.20;58.70;;;;;;4963209;28;87691;-67
2024/03/14 05:32:32;;;;;;;1.70;1.45;;;20.20;58.70;;;;;;4988067;28;87364;-67
2024/03/14 05:34:59;;;;;;;1.95;1.38;;;20.20;58.60;;;;;;4973863;28;88654;-67
2024/03/14 05:37:26;;;;;;;1.40;0.90;;;20.20;59.00;;;;;;4973350;28;88065;-67
2024/03/14 05:39:52;;;;;;;2.03;1.15;;;20.20;58.40;;;;;;4950402;28;88256;-67
2024/03/14 05:42:18;;;;;;;1.15;0.90;;;20.20;58.30;;;;;;4984639;28;87615;-67
2024/03/14 05:44:47;;;;;;;2.42;1.23;;;20.20;58.20;;;;;;4988379;28;87654;-67
2024/03/14 05:47:13;;;;;;;1.33;0.90;;;20.20;58.20;;;;;;4971577;28;88511;-67
2024/03/14 05:49:39;;;;;;;1.95;1.40;;;20.10;58.40;;;;;;4969352;28;87468;-66
2024/03/14 05:52:07;;;;;;;3.33;1.25;;;20.10;58.40;;;;;;4970283;28;87458;-67
2024/03/14 05:54:32;;;;;;;1.50;0.90;;;20.20;58.40;;;;;;4951521;28;88052;-67
2024/03/14 05:56:58;;;;;;;1.52;1.15;;;20.10;58.40;;;;;;4972742;28;88055;-67
2024/03/14 05:59:24;;;;;;;1.52;0.98;;;20.10;58.30;;;;;;4974433;28;86956;-67
2024/03/14 06:01:53;;;;;;;3.05;1.48;;;20.10;58.40;;;;;;4973125;28;87810;-67
2024/03/14 06:04:21;;;;;;;0.93;0.70;;;20.10;58.40;;;;;;4968882;28;89128;-67
2024/03/14 06:06:51;;;;;;;1.40;1.30;;;20.10;58.40;;;;;;4973974;28;88746;-68
2024/03/14 06:09:17;;;;;;;1.40;1.10;;;20.10;58.40;;;;;;4973589;28;87501;-67
2024/03/14 06:11:43;;;;;;;2.33;1.17;;;20.10;58.30;;;;;;4972013;28;88216;-67
2024/03/14 06:14:09;;;;;;;1.35;1.02;;;20.10;58.30;;;;;;4974908;28;88668;-67
2024/03/14 06:16:35;;;;;;;0.75;0.70;;;20.10;58.40;;;;;;4974643;28;88023;-68
2024/03/14 06:19:01;;;;;;;0.82;0.80;;;20.10;58.30;;;;;;4972886;28;87112;-66
2024/03/14 06:21:27;;;;;;;1.83;0.70;;;20.20;58.40;;;;;;4973025;28;87500;-67
2024/03/14 06:23:55;;;;;;;1.75;1.05;;;20.10;58.40;;;;;;4973090;28;88089;-66
2024/03/14 06:26:21;;;;;;;1.83;1.23;;;20.10;58.40;;;;;;4980225;28;88570;-67
2024/03/14 06:28:47;;;;;;;1.10;0.88;;;20.10;58.30;;;;;;4993159;28;88145;-67
2024/03/14 06:31:17;;;;;;;1.27;1.05;;;20.10;58.20;;;;;;4993066;28;87616;-67
2024/03/14 06:33:42;;;;;;;1.23;0.88;;;20.10;58.10;;;;;;4971249;28;88864;-67
2024/03/14 06:36:08;;;;;;;1.50;0.75;;;20.10;58.20;;;;;;4990694;28;89419;-67
2024/03/14 06:38:34;;;;;;;1.45;0.90;;;20.10;58.20;;;;;;4972280;28;87402;-67
2024/03/14 06:41:00;;;;;;;1.20;0.75;;;20.10;58.20;;;;;;4989960;28;87384;-67
2024/03/14 06:43:26;;;;;;;1.50;1.05;;;20.10;58.20;;;;;;4949314;28;88082;-67
2024/03/14 06:45:53;;;;;;;1.38;1.10;;;20.20;58.20;;;;;;4977814;28;88286;-67
2024/03/14 06:48:19;;;;;;;2.33;1.00;;;20.20;58.20;;;;;;4971260;28;87347;-67
2024/03/14 06:50:45;;;;;;;1.05;0.88;;;20.20;58.00;;;;;;4953682;28;87787;-67
2024/03/14 06:53:12;;;;;;;1.10;0.95;;;20.10;58.10;;;;;;4972089;28;89028;-67
2024/03/14 06:55:37;;;;;;;1.38;0.93;;;20.10;58.00;;;;;;4971621;28;88021;-67
2024/03/14 06:58:03;;;;;;;1.27;0.80;;;20.10;57.90;;;;;;4972153;28;87327;-67
2024/03/14 07:00:30;;;;;;;0.80;0.80;;;20.20;58.10;;;;;;4968292;28;86896;-66
2024/03/14 07:02:56;;;;;;;1.05;0.95;;;20.20;58.00;;;;;;4980018;28;88634;-67
2024/03/14 07:05:24;;;;;;;1.38;0.93;;;20.20;58.10;;;;;;4971905;28;87893;-67
2024/03/14 07:07:50;;;;;;;1.30;1.05;;;20.20;57.90;;;;;;4969553;28;87321;-67
2024/03/14 07:10:19;;;;;;;1.92;1.00;;;20.20;57.90;;;;;;4970729;28;86357;-67
2024/03/14 07:12:52;;;;;;;1.42;0.73;;;20.20;57.90;;;;;;4970921;28;90069;-68
2024/03/14 07:15:19;;;;;;;1.50;1.00;;;20.20;57.90;;;;;;4954017;28;88749;-67
2024/03/14 07:17:45;;;;;;;1.45;0.80;;;20.20;57.80;;;;;;4965972;28;88348;-67
2024/03/14 07:20:18;;;;;;;0.98;0.77;;;20.30;57.80;;;;;;4982589;28;87717;-68
2024/03/14 07:22:45;;;;;;;1.35;0.82;;;20.30;58.00;;;;;;4959878;28;93670;-66
2024/03/14 07:25:15;;;;;;;0.85;0.80;;;20.30;58.00;;;;;;4986004;28;88073;-67
2024/03/14 07:27:42;;;;;;;1.65;1.00;;;20.30;57.90;;;;;;4969515;28;87448;-67
2024/03/14 07:30:14;;;;;;;1.20;1.02;;;20.30;57.60;;;;;;4989570;28;89740;-67
2024/03/14 07:32:47;;;;;;;0.88;0.70;;;20.30;57.70;;;;;;4973697;28;87744;-66
2024/03/14 07:35:13;;;;;;;1.55;1.13;;;20.30;57.90;;;;;;4992510;28;87847;-66
2024/03/14 07:37:41;;;;;;;1.45;1.08;;;20.30;57.80;;;;;;4988438;28;87230;-66
2024/03/14 07:40:15;;;;;;;1.25;0.80;;;20.40;57.80;;;;;;4964186;28;87502;-67
2024/03/14 07:42:41;;;;;;;1.23;1.00;;;20.40;57.70;;;;;;4972906;28;90274;-67
2024/03/14 07:45:16;;;;;;;0.82;0.73;;;20.40;57.70;;;;;;4990914;28;88714;-67
2024/03/14 07:47:42;;;;;;;1.48;0.82;;;20.40;57.60;;;;;;4990750;28;86924;-67
2024/03/14 07:50:08;;;;;;;2.03;1.02;;;20.40;57.70;;;;;;4991324;28;88620;-67
2024/03/14 07:52:34;;;;;;;1.70;1.25;;;20.30;58.00;;;;;;4973316;28;87928;-66
2024/03/14 07:55:00;;;;;;;4.32;0.88;;;20.40;58.30;;;;;;4962559;28;88230;-66
2024/03/14 07:57:28;;;;;;;3.33;1.20;;;20.40;58.50;;;;;;4969492;28;87269;-67
2024/03/14 07:59:53;;;;;;;1.35;1.15;;;20.40;58.80;;;;;;4978875;28;87558;-67
2024/03/14 08:02:21;;;;;;;2.10;1.02;;;20.40;59.10;;;;;;4973286;28;88251;-68
2024/03/14 08:04:47;;;;;;;1.27;1.10;;;20.40;59.20;;;;;;4990438;28;88185;-67
2024/03/14 08:07:17;;;;;;;5.47;1.70;;;20.40;59.20;;;;;;4972345;28;88156;-66
2024/03/14 08:09:44;;;;;;;2.95;0.80;;;20.40;59.00;;;;;;4968817;28;87483;-68
2024/03/14 08:12:10;;;;;;;2.35;1.00;;;20.40;58.40;;;;;;4952752;28;88193;-65
2024/03/14 08:14:37;;;;;;;2.15;1.42;;;20.40;59.00;;;;;;4970861;28;88181;-66
2024/03/14 08:17:13;;;;;;;2.30;1.38;;;20.40;58.40;;;;;;4973486;28;87484;-66
2024/03/14 08:19:39;;;;;;;4.18;1.35;;;20.50;58.20;;;;;;4951652;28;87538;-65
2024/03/14 08:22:08;;;;;;;7.43;2.17;;;20.40;57.20;;;;;;4953498;28;88163;-65
2024/03/14 08:24:49;;;;;;;4.90;1.67;;;20.50;57.70;;;;;;4971945;28;88040;-65
2024/03/14 08:27:15;;;;;;;10.80;3.42;;;20.50;58.00;;;;;;4953597;28;87346;-67
2024/03/14 08:29:41;;;;;;;15.68;3.13;;;20.50;58.30;;;;;;4967638;28;86864;-65
2024/03/14 08:32:09;;;;;;;14.93;3.92;;;20.50;58.00;;;;;;4953622;28;90014;-66
2024/03/14 08:34:35;;;;;;;15.70;4.07;;;20.50;58.20;;;;;;4968537;28;89614;-66
2024/03/14 08:37:03;;;;;;;17.48;4.43;;;20.50;58.20;;;;;;4970599;28;87090;-68
2024/03/14 08:39:30;;;;;;;16.67;3.67;;;20.50;58.10;;;;;;4960659;28;87538;-67
2024/03/14 08:41:58;;;;;;;13.60;4.28;;;20.50;57.60;;;;;;4951005;28;89952;-67
2024/03/14 08:44:27;;;;;;;19.10;4.25;;;20.50;58.10;;;;;;4969306;28;88302;-66
2024/03/14 08:46:53;;;;;;;15.40;4.37;;;20.50;58.20;;;;;;4952224;28;87527;-67
2024/03/14 08:49:19;;;;;;;19.85;4.93;;;20.50;58.40;;;;;;4939123;28;87979;-68
2024/03/14 08:51:45;;;;;;;11.52;4.60;;;20.50;58.50;;;;;;4966251;28;88423;-67
2024/03/14 08:56:47;;;;;;;14.48;3.75;;;20.50;58.50;;;;;;4963400;28;88595;-67
2024/03/14 08:59:14;;;;;;;11.27;3.83;;;20.50;58.70;;;;;;4951952;28;89231;-66
2024/03/14 09:01:40;;;;;;;15.52;3.70;;;20.50;58.80;;;;;;4971418;28;92906;-65
2024/03/14 09:04:05;;;;;;;12.63;4.00;;;20.50;59.00;;;;;;4961337;28;87753;-66
2024/03/14 09:06:33;;;;;;;15.82;4.03;;;20.50;59.00;;;;;;4969344;28;87059;-66
2024/03/14 09:09:04;;;;;;;11.02;4.07;;;20.50;59.00;;;;;;4970224;28;86911;-67
2024/03/14 09:11:32;;;;;;;18.00;3.83;;;20.40;59.10;;;;;;4971090;28;88706;-66
2024/03/14 09:13:58;;;;;;;17.40;3.88;;;20.50;59.20;;;;;;4971172;28;87862;-66
2024/03/14 09:16:26;;;;;;;12.68;4.25;;;20.50;59.10;;;;;;4952071;28;86833;-67
2024/03/14 09:18:57;;;;;;;12.63;3.47;;;20.60;58.90;;;;;;4967866;28;88015;-67
2024/03/14 09:21:22;;;;;;;18.38;4.93;;;20.60;58.80;;;;;;4952011;28;89837;-66
2024/03/14 09:23:48;;;;;;;25.83;5.38;;;20.60;58.50;;;;;;4950722;28;89505;-67
2024/03/14 09:26:16;;;;;;;32.50;7.32;;;20.60;58.30;;;;;;4960445;28;88285;-68
2024/03/14 09:28:43;;;;;;;23.77;6.00;;;20.60;58.40;;;;;;4964867;28;91246;-67
2024/03/14 09:31:09;;;;;;;30.40;7.00;;;20.50;58.50;;;;;;4968421;28;88166;-67
2024/03/14 09:33:37;;;;;;;23.80;4.95;;;20.50;58.60;;;;;;4970102;28;87658;-68
2024/03/14 09:36:09;;;;;;;29.27;5.28;;;20.50;58.60;;;;;;4973285;28;87361;-67
2024/03/14 09:38:35;;;;;;;27.88;6.57;;;20.50;58.60;;;;;;4955335;28;88035;-67
2024/03/14 09:41:01;;;;;;;23.80;5.47;;;20.50;58.60;;;;;;4972793;28;87846;-66
2024/03/14 09:43:29;;;;;;;17.65;5.80;;;20.50;58.50;;;;;;4971161;28;87574;-67
2024/03/14 09:45:56;;;;;;;28.00;6.45;;;20.50;58.40;;;;;;4954679;28;88285;-68
2024/03/14 09:48:26;;;;;;;32.40;6.07;;;20.50;59.00;;;;;;4971453;28;87375;-68
2024/03/14 09:50:54;;;;;;;23.25;5.90;;;20.40;58.30;;;;;;4969685;28;88435;-67
2024/03/14 09:53:23;;;;;;;25.92;6.13;;;20.40;58.40;;;;;;4973294;28;87847;-68
2024/03/14 09:55:49;;;;;;;26.35;6.82;;;20.40;58.30;;;;;;4957122;28;87663;-67
2024/03/14 09:58:19;;;;;;;17.65;5.28;;;20.40;58.40;;;;;;4972390;28;88949;-66
2024/03/14 10:00:45;;;;;;;20.20;5.22;;;20.40;58.20;;;;;;4954269;28;89103;-67
2024/03/14 10:03:13;;;;;;;22.10;5.55;;;20.40;58.20;;;;;;4973830;28;87400;-67
2024/03/14 10:05:41;;;;;;;18.15;4.93;;;20.40;58.10;;;;;;4970850;28;87475;-66
2024/03/14 10:08:07;;;;;;;24.35;5.10;;;20.40;57.90;;;;;;4973608;28;88578;-67
2024/03/14 10:10:35;;;;;;;12.00;4.03;;;20.40;57.90;;;;;;4969403;28;89569;-68
2024/03/14 10:13:01;;;;;;;15.55;4.32;;;20.40;57.70;;;;;;4992227;28;89254;-68
2024/03/14 10:15:28;;;;;;;20.27;5.28;;;20.40;57.50;;;;;;4990609;28;87474;-66
2024/03/14 10:17:55;;;;;;;17.27;4.25;;;20.50;57.60;;;;;;4973451;28;87148;-66
2024/03/14 10:20:21;;;;;;;25.27;5.07;;;20.40;57.60;;;;;;4989638;28;88905;-67
2024/03/14 10:22:50;;;;;;;15.88;4.43;;;20.40;57.50;;;;;;4990505;28;87566;-67
2024/03/14 10:25:17;;;;;;;22.65;5.18;;;20.40;57.60;;;;;;4987145;28;87012;-67
2024/03/14 10:27:54;;;;;;;16.38;4.00;;;20.40;57.60;;;;;;4970584;28;88377;-67
2024/03/14 10:30:21;;;;;;;19.40;4.13;;;20.50;57.50;;;;;;4991195;28;88590;-68
2024/03/14 10:32:49;;;;;;;15.98;3.55;;;20.40;57.50;;;;;;4991514;28;87803;-66
2024/03/14 10:35:17;;;;;;;15.07;3.92;;;20.50;57.50;;;;;;4992071;28;88287;-66
2024/03/14 10:37:43;;;;;;;14.73;4.67;;;20.40;57.40;;;;;;4973268;28;91719;-67
2024/03/14 10:40:20;;;;;;;13.07;3.97;;;20.50;57.30;;;;;;4991580;28;87354;-67
2024/03/14 10:42:50;;;;;;;16.27;4.05;;;20.40;57.20;;;;;;4974511;28;87935;-67
2024/03/14 10:45:20;;;;;;;19.98;3.60;;;20.50;57.20;;;;;;4974016;28;87453;-67
2024/03/14 10:47:49;;;;;;;;;;;20.50;57.20;;;;;;4983856;28;88046;-69
2024/03/14 10:50:19;;;;;;;22.08;5.13;;;20.50;57.20;;;;;;4992359;28;88783;-65
2024/03/14 10:52:49;;;;;;;15.05;3.22;;;20.50;57.10;;;;;;4991969;28;91550;-66
2024/03/14 10:55:17;;;;;;;18.67;4.65;;;20.50;57.20;;;;;;4991848;28;87082;-66
2024/03/14 10:57:44;;;;;;;13.10;3.50;;;20.50;57.10;;;;;;4991079;28;87744;-66
2024/03/14 11:00:21;;;;;;;13.80;3.60;;;20.40;57.10;;;;;;4990162;28;88329;-66
2024/03/14 11:02:52;;;;;;;11.65;3.30;;;20.50;57.10;;;;;;4963500;28;89187;-66
2024/03/14 11:05:22;;;;;;;12.15;3.38;;;20.40;57.00;;;;;;4955945;28;87196;-67
2024/03/14 11:07:56;;;;;;;14.75;4.28;;;20.40;57.00;;;;;;4986637;28;87308;-66
2024/03/14 11:10:28;;;;;;;9.48;3.60;;;20.40;56.80;;;;;;4991438;28;88106;-67
2024/03/14 11:13:05;;;;;;;9.55;3.40;;;20.40;56.70;;;;;;4990822;28;88333;-66
2024/03/14 11:15:36;;;;;;;14.25;4.10;;;20.40;56.50;;;;;;4991714;28;87546;-66
2024/03/14 11:18:05;;;;;;;9.43;2.95;;;20.40;56.50;;;;;;4991443;28;86857;-67
2024/03/14 11:20:32;;;;;;;7.93;2.47;;;20.50;56.60;;;;;;4988419;28;88323;-67
2024/03/14 11:23:03;;;;;;;6.90;2.42;;;20.50;56.60;;;;;;4969676;28;88226;-67
2024/03/14 11:25:35;;;;;;;16.10;3.05;;;20.50;56.20;;;;;;4990270;28;88140;-66
2024/03/14 11:28:02;;;;;;;6.10;2.40;;;20.50;55.90;;;;;;4978736;28;87336;-66
2024/03/14 11:30:29;;;;;;;7.07;2.53;;;20.60;55.80;;;;;;4953389;28;88348;-67
2024/03/14 11:32:55;;;;;;;5.63;2.50;;;20.60;55.70;;;;;;4971265;28;87836;-66
2024/03/14 11:35:43;;;;;;;9.07;2.83;;;20.70;55.80;;;;;;4970347;28;87379;-67
2024/03/14 11:38:21;;;;;;;6.55;2.20;;;20.70;56.10;;;;;;4965028;28;87575;-67
2024/03/14 11:41:01;;;;;;;5.82;2.28;;;20.80;56.20;;;;;;4984303;28;93847;-68
2024/03/14 11:43:27;;;;;;;9.73;2.35;;;21.00;56.20;;;;;;4968846;28;88675;-67
2024/03/14 11:45:59;;;;;;;9.02;2.47;;;21.00;56.10;;;;;;4954117;28;87329;-66
2024/03/14 11:48:30;;;;;;;8.73;2.35;;;21.10;56.00;;;;;;4954041;28;87446;-66
2024/03/14 11:50:58;;;;;;;5.10;2.30;;;21.20;55.90;;;;;;4953836;28;90230;-67
2024/03/14 11:53:25;;;;;;;4.75;2.10;;;21.20;55.90;;;;;;4970302;28;87817;-67
2024/03/14 11:55:54;;;;;;;6.82;1.73;;;21.20;56.00;;;;;;4971935;28;88148;-67
2024/03/14 11:58:20;;;;;;;8.07;2.03;;;21.20;55.80;;;;;;4972291;28;87518;-66
2024/03/14 12:00:48;;;;;;;6.60;1.48;;;21.20;55.60;;;;;;4953511;28;89327;-67
2024/03/14 12:03:15;;;;;;;4.28;1.75;;;21.10;55.90;;;;;;4968877;28;87212;-65
2024/03/14 12:05:44;;;;;;;5.32;2.15;;;21.20;55.90;;;;;;4949962;28;87139;-65
2024/03/14 12:08:15;;;;;;;5.47;2.17;;;21.20;56.00;;;;;;4970719;28;86367;-68
2024/03/14 12:10:42;;;;;;;7.05;2.08;;;21.20;56.20;;;;;;4969106;28;91938;-67
2024/03/14 12:13:19;;;;;;;6.82;2.03;;;21.20;55.90;;;;;;4970306;28;88138;-68
2024/03/14 12:15:57;;;;;;;6.55;1.83;;;21.20;56.10;;;;;;4963814;28;88293;-68
2024/03/14 12:18:24;;;;;;;5.95;2.42;;;21.20;56.60;;;;;;4969230;28;88084;-67
2024/03/14 12:20:52;;;;;;;6.05;2.10;;;21.20;56.20;;;;;;4969134;28;88757;-67
2024/03/14 12:23:19;;;;;;;3.88;1.50;;;21.20;55.80;;;;;;4970313;28;88399;-67
2024/03/14 12:25:53;;;;;;;5.35;1.63;;;21.20;55.80;;;;;;4954220;28;87519;-67
2024/03/14 12:28:19;;;;;;;2.72;1.50;;;21.20;55.80;;;;;;4953889;28;87393;-67
2024/03/14 12:30:56;;;;;;;5.47;1.70;;;21.20;56.00;;;;;;4969646;28;88420;-67
2024/03/14 12:33:23;;;;;;;4.65;1.60;;;21.10;55.90;;;;;;4971296;28;87527;-68
2024/03/14 12:35:52;;;;;;;4.18;1.65;;;21.10;56.10;;;;;;4953575;28;87167;-67
2024/03/14 12:38:18;;;;;;;4.55;1.48;;;21.10;55.60;;;;;;4953526;28;87333;-66
2024/03/14 12:40:49;;;;;;;9.30;2.05;;;21.10;55.60;;;;;;4986242;28;90070;-67
2024/03/14 12:43:17;;;;;;;4.22;1.50;;;21.10;55.70;;;;;;4971408;28;89542;-67
2024/03/14 12:45:45;;;;;;;6.00;1.38;;;21.10;55.90;;;;;;4970598;28;87607;-67
2024/03/14 12:48:15;;;;;;;6.32;1.42;;;21.10;56.10;;;;;;4953291;28;87293;-68
2024/03/14 12:50:41;;;;;;;5.18;1.55;;;21.20;56.10;;;;;;4969633;28;88076;-66
2024/03/14 12:53:07;;;;;;;3.55;1.55;;;21.20;56.30;;;;;;4972125;28;88855;-66
2024/03/14 12:55:33;;;;;;;5.75;2.05;;;21.20;56.00;;;;;;4947417;28;87248;-68